createdAt,value
2023-02-09T00:01:03.877Z,14.00
2023-02-09T00:03:29.894Z,13.27
2023-02-09T00:05:57.901Z,12.37
2023-02-09T00:08:23.728Z,12.97
2023-02-09T00:10:49.430Z,13.27
2023-02-09T00:13:24.106Z,11.80
2023-02-09T00:15:51.676Z,13.93
2023-02-09T00:18:17.509Z,13.73
2023-02-09T00:20:43.596Z,12.87
2023-02-09T00:23:09.572Z,12.80
2023-02-09T00:25:37.012Z,14.50
2023-02-09T00:28:02.819Z,13.17
2023-02-09T00:30:28.542Z,13.63
2023-02-09T00:32:54.263Z,14.77
2023-02-09T00:35:20.001Z,14.70
2023-02-09T00:37:45.738Z,13.43
2023-02-09T00:40:11.641Z,15.47
2023-02-09T00:42:37.368Z,14.50
2023-02-09T00:45:03.462Z,13.33
2023-02-09T00:47:29.248Z,14.03
2023-02-09T00:49:54.960Z,14.13
2023-02-09T00:52:20.669Z,15.67
2023-02-09T00:54:46.367Z,13.77
2023-02-09T00:57:12.230Z,13.83
2023-02-09T00:59:40.167Z,15.17
2023-02-09T01:02:05.995Z,14.47
2023-02-09T01:04:32.190Z,15.40
2023-02-09T01:06:58.020Z,14.10
2023-02-09T01:09:23.791Z,13.67
2023-02-09T01:11:49.531Z,14.33
2023-02-09T01:14:15.511Z,15.10
2023-02-09T01:16:41.343Z,14.23
2023-02-09T01:19:07.095Z,14.23
2023-02-09T01:21:32.852Z,13.60
2023-02-09T01:23:58.852Z,14.63
2023-02-09T01:26:24.743Z,14.20
2023-02-09T01:28:51.997Z,14.03
2023-02-09T01:31:20.211Z,13.77
2023-02-09T01:33:46.107Z,15.20
2023-02-09T01:36:11.827Z,15.57
2023-02-09T01:38:37.560Z,15.30
2023-02-09T01:41:03.313Z,15.73
2023-02-09T01:43:29.025Z,13.90
2023-02-09T01:45:54.876Z,15.10
2023-02-09T01:48:26.335Z,15.07
2023-02-09T01:50:54.081Z,15.57
2023-02-09T01:53:20.188Z,14.07
2023-02-09T01:55:50.776Z,16.07
2023-02-09T01:58:17.866Z,15.63
2023-02-09T02:00:44.905Z,15.40
2023-02-09T02:03:13.655Z,14.30
2023-02-09T02:05:41.589Z,14.57
2023-02-09T02:08:13.316Z,15.97
2023-02-09T02:10:39.061Z,14.30
2023-02-09T02:13:04.804Z,14.53
2023-02-09T02:15:34.574Z,14.27
2023-02-09T02:18:00.323Z,15.20
2023-02-09T02:20:45.034Z,15.20
2023-02-09T02:23:29.290Z,14.40
2023-02-09T02:26:09.172Z,13.77
2023-02-09T02:28:44.969Z,13.77
2023-02-09T02:31:20.344Z,12.57
2023-02-09T02:34:03.915Z,14.77
2023-02-09T02:36:44.937Z,14.27
2023-02-09T02:39:22.704Z,14.80
2023-02-09T02:42:15.212Z,13.40
2023-02-09T02:44:42.350Z,14.23
2023-02-09T02:47:10.160Z,14.33
2023-02-09T02:49:49.563Z,14.60
2023-02-09T02:52:15.405Z,13.50
2023-02-09T02:54:44.150Z,15.17
2023-02-09T02:57:12.898Z,13.80
2023-02-09T02:59:44.162Z,14.30
2023-02-09T03:02:12.256Z,13.33
2023-02-09T03:04:38.856Z,13.63
2023-02-09T03:07:05.313Z,11.37
2023-02-09T03:09:31.041Z,10.80
2023-02-09T03:11:59.889Z,12.53
2023-02-09T03:14:40.903Z,11.30
2023-02-09T03:17:18.640Z,12.50
2023-02-09T03:19:47.282Z,11.13
2023-02-09T03:22:17.036Z,12.17
2023-02-09T03:24:47.804Z,10.73
2023-02-09T03:27:18.639Z,12.60
2023-02-09T03:29:48.585Z,12.93
2023-02-09T03:32:15.318Z,11.57
2023-02-09T03:34:41.433Z,13.63
2023-02-09T03:37:07.367Z,12.63
2023-02-09T03:39:33.206Z,12.90
2023-02-09T03:41:58.951Z,12.67
2023-02-09T03:44:27.397Z,13.43
2023-02-09T03:47:00.344Z,10.87
2023-02-09T03:49:26.982Z,12.60
2023-02-09T03:51:52.699Z,11.37
2023-02-09T03:54:18.568Z,11.70
2023-02-09T03:56:44.419Z,11.67
2023-02-09T03:59:10.166Z,13.03
2023-02-09T04:01:35.924Z,12.03
2023-02-09T04:04:02.243Z,15.03
2023-02-09T04:06:28.440Z,11.17
2023-02-09T04:08:55.500Z,12.53
2023-02-09T04:11:23.228Z,12.80
2023-02-09T04:13:49.260Z,12.40
2023-02-09T04:16:14.985Z,12.47
2023-02-09T04:18:40.784Z,12.63
2023-02-09T04:21:06.582Z,12.90
2023-02-09T04:23:32.312Z,13.17
2023-02-09T04:25:58.029Z,12.40
2023-02-09T04:28:23.794Z,13.10
2023-02-09T04:30:53.687Z,13.63
2023-02-09T04:33:19.996Z,11.15
2023-02-09T04:35:45.835Z,11.27
2023-02-09T04:38:11.622Z,13.83
2023-02-09T04:40:37.350Z,12.43
2023-02-09T04:43:03.143Z,11.77
2023-02-09T04:45:28.926Z,13.03
2023-02-09T04:47:54.675Z,11.87
2023-02-09T04:50:20.380Z,12.90
2023-02-09T04:52:46.114Z,11.97
2023-02-09T04:55:11.847Z,11.10
2023-02-09T04:57:56.280Z,12.80
2023-02-09T05:00:22.127Z,11.93
2023-02-09T05:02:47.858Z,12.17
2023-02-09T05:05:13.603Z,14.10
2023-02-09T05:07:39.305Z,12.40
2023-02-09T05:10:05.252Z,12.73
2023-02-09T05:12:30.973Z,12.87
2023-02-09T05:14:56.699Z,11.67
2023-02-09T05:17:22.473Z,12.13
2023-02-09T05:19:48.193Z,13.00
2023-02-09T05:22:13.919Z,13.30
2023-02-09T05:24:39.708Z,13.33
2023-02-09T05:27:05.516Z,13.47
2023-02-09T05:29:31.264Z,11.73
2023-02-09T05:31:57.097Z,14.03
2023-02-09T05:34:22.847Z,12.33
2023-02-09T05:36:48.698Z,12.37
2023-02-09T05:39:14.466Z,12.53
2023-02-09T05:41:58.674Z,11.30
2023-02-09T05:44:24.438Z,14.67
2023-02-09T05:46:50.181Z,15.53
2023-02-09T05:49:15.945Z,12.47
2023-02-09T05:51:41.988Z,12.53
2023-02-09T05:54:07.905Z,12.80
2023-02-09T05:56:34.958Z,12.57
2023-02-09T05:59:01.731Z,11.40
2023-02-09T06:01:28.747Z,12.57
2023-02-09T06:03:54.608Z,12.13
2023-02-09T06:06:20.444Z,12.00
2023-02-09T06:08:46.284Z,11.87
2023-02-09T06:11:12.023Z,13.73
2023-02-09T06:13:37.966Z,13.50
2023-02-09T06:16:03.793Z,12.13
2023-02-09T06:18:29.704Z,12.50
2023-02-09T06:20:55.542Z,11.77
2023-02-09T06:23:21.444Z,12.63
2023-02-09T06:25:47.253Z,12.30
2023-02-09T06:28:13.208Z,12.23
2023-02-09T06:30:39.068Z,13.07
2023-02-09T06:33:05.069Z,13.37
2023-02-09T06:35:30.794Z,12.50
2023-02-09T06:37:57.487Z,13.20
2023-02-09T06:40:23.336Z,13.70
2023-02-09T06:42:49.092Z,13.00
2023-02-09T06:45:16.244Z,13.40
2023-02-09T06:47:43.165Z,12.70
2023-02-09T06:50:09.606Z,12.63
2023-02-09T06:52:35.401Z,12.80
2023-02-09T06:55:01.553Z,12.20
2023-02-09T06:57:28.450Z,11.17
2023-02-09T06:59:54.319Z,12.70
2023-02-09T07:02:20.279Z,13.53
2023-02-09T07:04:46.486Z,12.63
2023-02-09T07:07:12.203Z,11.73
2023-02-09T07:09:37.917Z,12.17
2023-02-09T07:12:03.932Z,11.67
2023-02-09T07:14:29.859Z,13.30
2023-02-09T07:16:55.882Z,12.57
2023-02-09T07:19:21.673Z,13.77
2023-02-09T07:21:48.243Z,13.27
2023-02-09T07:24:14.070Z,13.27
2023-02-09T07:26:39.896Z,12.57
2023-02-09T07:29:05.699Z,11.37
2023-02-09T07:31:31.560Z,12.63
2023-02-09T07:33:57.833Z,12.27
2023-02-09T07:36:23.685Z,11.50
2023-02-09T07:38:49.571Z,13.87
2023-02-09T07:41:19.688Z,12.90
2023-02-09T07:43:46.235Z,12.27
2023-02-09T07:46:13.798Z,14.90
2023-02-09T07:48:39.607Z,12.47
2023-02-09T07:51:05.807Z,11.77
2023-02-09T07:53:31.947Z,14.00
2023-02-09T07:55:57.878Z,14.00
2023-02-09T07:58:24.855Z,12.57
2023-02-09T08:00:51.155Z,12.93
2023-02-09T08:03:18.590Z,13.27
2023-02-09T08:05:48.192Z,13.10
2023-02-09T08:08:14.192Z,12.85
2023-02-09T08:10:40.721Z,13.90
2023-02-09T08:13:06.801Z,14.63
2023-02-09T08:15:48.783Z,13.03
2023-02-09T08:18:19.463Z,14.27
2023-02-09T08:20:46.141Z,13.90
2023-02-09T08:23:14.372Z,11.83
2023-02-09T08:25:40.241Z,13.50
2023-02-09T08:28:06.353Z,12.40
2023-02-09T08:30:33.721Z,11.73
2023-02-09T08:32:59.573Z,12.30
2023-02-09T08:35:30.586Z,10.87
2023-02-09T08:38:00.791Z,11.20
2023-02-09T08:40:26.639Z,10.73
2023-02-09T08:42:53.158Z,11.10
2023-02-09T08:45:18.950Z,10.50
2023-02-09T08:47:45.624Z,10.07
2023-02-09T08:50:11.627Z,10.90
2023-02-09T08:52:37.379Z,10.60
2023-02-09T08:55:03.599Z,10.67
2023-02-09T08:57:43.131Z,11.70
2023-02-09T09:02:35.607Z,9.77
2023-02-09T09:05:01.386Z,11.40
2023-02-09T09:07:27.113Z,11.30
2023-02-09T09:09:52.952Z,11.47
2023-02-09T09:12:18.706Z,10.70
2023-02-09T09:14:44.531Z,11.43
2023-02-09T09:17:10.493Z,10.33
2023-02-09T09:19:36.289Z,9.13
2023-02-09T09:22:03.084Z,13.53
2023-02-09T09:24:32.115Z,9.70
2023-02-09T09:26:57.996Z,10.43
2023-02-09T09:29:24.064Z,9.87
2023-02-09T09:31:49.836Z,8.67
2023-02-09T09:34:15.666Z,10.50
2023-02-09T09:36:44.728Z,9.77
2023-02-09T09:39:10.683Z,16.57
2023-02-09T09:41:37.402Z,10.43
2023-02-09T09:44:04.243Z,10.60
2023-02-09T09:46:38.199Z,10.67
2023-02-09T09:49:04.124Z,10.50
2023-02-09T09:51:29.884Z,11.07
2023-02-09T09:53:58.050Z,10.27
2023-02-09T09:56:26.107Z,10.17
2023-02-09T09:58:52.807Z,9.70
2023-02-09T10:01:20.108Z,9.03
2023-02-09T10:03:45.979Z,10.13
2023-02-09T10:06:14.274Z,9.53
2023-02-09T10:08:47.356Z,9.07
2023-02-09T10:11:14.464Z,9.83
2023-02-09T10:13:45.754Z,10.07
2023-02-09T10:16:33.813Z,10.20
2023-02-09T10:19:01.246Z,9.57
2023-02-09T10:21:28.778Z,9.60
2023-02-09T10:24:00.786Z,10.93
2023-02-09T10:26:33.765Z,9.63
2023-02-09T10:29:07.331Z,8.30
2023-02-09T10:31:35.520Z,8.03
2023-02-09T10:34:03.578Z,8.00
2023-02-09T10:36:37.079Z,9.20
2023-02-09T10:39:09.112Z,8.07
2023-02-09T10:41:35.158Z,7.77
2023-02-09T10:44:06.803Z,8.03
2023-02-09T10:46:32.744Z,8.77
2023-02-09T10:48:58.659Z,8.70
2023-02-09T10:51:28.631Z,8.77
2023-02-09T10:54:02.393Z,8.68
2023-02-09T10:56:35.242Z,9.17
2023-02-09T10:59:14.684Z,8.25
2023-02-09T11:01:41.680Z,9.17
2023-02-09T11:04:18.515Z,8.53
2023-02-09T11:07:15.465Z,8.40
2023-02-09T11:09:47.506Z,9.10
2023-02-09T11:12:14.169Z,9.27
2023-02-09T11:14:41.959Z,9.53
2023-02-09T11:17:14.133Z,8.10
2023-02-09T11:19:59.045Z,8.07
2023-02-09T11:22:28.950Z,8.77
2023-02-09T11:25:15.792Z,6.82
2023-02-09T11:27:48.936Z,7.63
2023-02-09T11:30:21.994Z,8.43
2023-02-09T11:32:56.895Z,7.97
2023-02-09T11:35:26.361Z,7.50
2023-02-09T11:38:01.200Z,8.35
2023-02-09T11:40:31.020Z,8.52
2023-02-09T11:43:17.027Z,8.43
2023-02-09T11:45:47.546Z,7.65
2023-02-09T11:48:16.240Z,7.30
2023-02-09T11:51:00.921Z,7.50
2023-02-09T11:53:43.909Z,6.63
2023-02-09T11:56:14.477Z,7.65
2023-02-09T11:58:52.657Z,6.93
2023-02-09T12:01:25.999Z,7.63
2023-02-09T12:03:55.553Z,9.70
2023-02-09T12:06:22.377Z,7.80
2023-02-09T12:08:52.421Z,7.53
2023-02-09T12:11:29.022Z,7.18
2023-02-09T12:13:58.429Z,6.85
2023-02-09T12:16:27.842Z,7.38
2023-02-09T12:18:54.992Z,7.30
2023-02-09T12:21:31.095Z,7.32
2023-02-09T12:23:56.981Z,7.40
2023-02-09T12:26:25.912Z,7.00
2023-02-09T12:29:03.912Z,8.30
2023-02-09T12:31:30.691Z,7.72
2023-02-09T12:34:10.493Z,6.80
2023-02-09T12:37:05.834Z,7.07
2023-02-09T12:39:33.149Z,6.22
2023-02-09T12:42:21.977Z,7.68
2023-02-09T12:44:56.565Z,7.20
2023-02-09T12:47:48.523Z,6.85
2023-02-09T12:50:34.624Z,6.03
2023-02-09T12:53:19.256Z,7.40
2023-02-09T12:55:57.110Z,6.07
2023-02-09T12:58:36.778Z,6.25
2023-02-09T13:01:03.424Z,7.57
2023-02-09T13:03:29.874Z,6.43
2023-02-09T13:05:58.714Z,6.47
2023-02-09T13:08:29.676Z,6.00
2023-02-09T13:10:56.178Z,6.95
2023-02-09T13:13:31.359Z,7.07
2023-02-09T13:16:00.395Z,6.30
2023-02-09T13:18:45.813Z,6.50
2023-02-09T13:21:17.602Z,7.68
2023-02-09T13:24:01.729Z,7.13
2023-02-09T13:26:30.283Z,6.38
2023-02-09T13:29:20.522Z,6.90
2023-02-09T13:32:06.386Z,6.72
2023-02-09T13:34:41.458Z,6.13
2023-02-09T13:37:29.243Z,5.82
2023-02-09T13:40:00.365Z,6.03
2023-02-09T13:42:27.363Z,6.28
2023-02-09T13:44:55.016Z,5.72
2023-02-09T13:47:23.867Z,6.47
2023-02-09T13:50:00.001Z,5.85
2023-02-09T13:52:27.209Z,7.30
2023-02-09T13:54:53.389Z,6.63
2023-02-09T13:57:33.709Z,5.57
2023-02-09T14:00:09.360Z,6.15
2023-02-09T14:02:35.860Z,5.47
2023-02-09T14:05:20.752Z,6.35
2023-02-09T14:07:51.368Z,6.28
2023-02-09T14:10:19.206Z,6.00
2023-02-09T14:12:52.117Z,6.25
2023-02-09T14:15:42.360Z,5.35
2023-02-09T14:18:34.966Z,5.82
2023-02-09T14:21:13.591Z,6.95
2023-02-09T14:23:40.626Z,6.13
2023-02-09T14:26:16.765Z,6.07
2023-02-09T14:28:44.995Z,5.32
2023-02-09T14:31:18.285Z,6.28
2023-02-09T14:33:47.719Z,6.30
2023-02-09T14:36:25.457Z,6.60
2023-02-09T14:38:51.941Z,6.10
2023-02-09T14:41:18.127Z,5.68
2023-02-09T14:43:44.658Z,7.50
2023-02-09T14:46:10.540Z,5.90
2023-02-09T14:48:37.139Z,6.82
2023-02-09T14:51:15.419Z,5.75
2023-02-09T14:53:42.575Z,6.25
2023-02-09T14:56:19.086Z,5.30
2023-02-09T14:58:44.993Z,6.22
2023-02-09T15:01:10.884Z,5.78
2023-02-09T15:03:36.671Z,6.30
2023-02-09T15:06:04.004Z,5.40
2023-02-09T15:08:32.787Z,6.05
2023-02-09T15:11:00.057Z,6.90
2023-02-09T15:13:27.137Z,5.70
2023-02-09T15:15:53.157Z,6.10
2023-02-09T15:18:20.361Z,6.47
2023-02-09T15:20:46.527Z,6.32
2023-02-09T15:23:12.489Z,5.88
2023-02-09T15:25:39.039Z,6.40
2023-02-09T15:28:10.034Z,5.40
2023-02-09T15:30:36.062Z,6.63
2023-02-09T15:33:02.079Z,6.88
2023-02-09T15:35:47.309Z,5.95
2023-02-09T15:38:14.429Z,6.35
2023-02-09T15:41:00.534Z,5.80
2023-02-09T15:43:45.487Z,5.70
2023-02-09T15:46:30.053Z,11.07
2023-02-09T15:48:56.016Z,6.77
2023-02-09T15:51:22.808Z,7.93
2023-02-09T15:53:48.842Z,6.90
2023-02-09T15:56:14.778Z,6.40
2023-02-09T15:58:42.341Z,7.23
2023-02-09T16:01:11.748Z,6.00
2023-02-09T16:03:37.623Z,5.00
2023-02-09T16:06:11.334Z,4.70
2023-02-09T16:08:38.419Z,8.40
2023-02-09T16:11:08.992Z,6.73
2023-02-09T16:13:35.512Z,6.25
2023-02-09T16:16:15.864Z,6.23
2023-02-09T16:18:43.755Z,5.97
2023-02-09T16:21:28.616Z,6.03
2023-02-09T16:23:56.704Z,6.03
2023-02-09T16:26:23.737Z,5.97
2023-02-09T16:28:51.210Z,5.77
2023-02-09T16:31:18.780Z,5.73
2023-02-09T16:33:44.745Z,6.03
2023-02-09T16:36:24.110Z,6.00
2023-02-09T16:38:49.947Z,5.83
2023-02-09T16:41:36.614Z,6.00
2023-02-09T16:44:11.810Z,6.40
2023-02-09T16:46:37.914Z,6.87
2023-02-09T16:49:03.782Z,5.27
2023-02-09T16:51:29.874Z,6.17
2023-02-09T16:53:56.180Z,6.33
2023-02-09T16:56:24.196Z,6.13
2023-02-09T16:58:50.037Z,6.20
2023-02-09T17:01:17.473Z,5.97
2023-02-09T17:03:46.836Z,6.20
2023-02-09T17:06:19.607Z,5.97
2023-02-09T17:08:46.159Z,6.27
2023-02-09T17:11:15.014Z,6.53
2023-02-09T17:13:42.000Z,6.67
2023-02-09T17:16:14.874Z,6.70
2023-02-09T17:18:42.276Z,7.63
2023-02-09T17:21:09.573Z,6.13
2023-02-09T17:23:36.373Z,5.73
2023-02-09T17:26:02.440Z,7.13
2023-02-09T17:28:28.790Z,6.87
2023-02-09T17:30:59.269Z,8.37
2023-02-09T17:33:26.924Z,6.97
2023-02-09T17:36:23.890Z,7.27
2023-02-09T17:38:40.494Z,7.60
2023-02-09T17:41:11.967Z,8.33
2023-02-09T17:43:37.816Z,6.23
2023-02-09T17:46:05.457Z,6.37
2023-02-09T17:48:31.221Z,7.07
2023-02-09T17:50:59.564Z,7.17
2023-02-09T17:53:26.708Z,7.47
2023-02-09T17:55:55.606Z,7.07
2023-02-09T17:58:21.606Z,6.90
2023-02-09T18:00:47.566Z,8.37
2023-02-09T18:03:15.432Z,6.67
2023-02-09T18:05:41.404Z,7.40
2023-02-09T18:08:07.684Z,8.00
2023-02-09T18:10:34.134Z,6.87
2023-02-09T18:13:00.022Z,8.90
2023-02-09T18:15:27.660Z,8.23
2023-02-09T18:17:53.950Z,7.07
2023-02-09T18:20:24.437Z,6.37
2023-02-09T18:22:50.234Z,7.68
2023-02-09T18:25:26.973Z,7.60
2023-02-09T18:27:53.515Z,8.07
2023-02-09T18:30:20.402Z,8.27
2023-02-09T18:32:47.113Z,7.17
2023-02-09T18:35:38.094Z,7.53
2023-02-09T18:38:05.229Z,9.43
2023-02-09T18:40:33.936Z,10.00
2023-02-09T18:43:00.942Z,10.67
2023-02-09T18:45:26.896Z,9.40
2023-02-09T18:47:52.708Z,8.90
2023-02-09T18:50:20.019Z,8.27
2023-02-09T18:52:50.732Z,9.00
2023-02-09T18:57:42.800Z,8.07
2023-02-09T19:00:10.772Z,8.43
2023-02-09T19:02:36.745Z,9.53
2023-02-09T19:05:03.766Z,8.90
2023-02-09T19:07:30.171Z,8.87
2023-02-09T19:09:56.292Z,9.13
2023-02-09T19:12:22.152Z,8.50
2023-02-09T19:14:48.784Z,8.23
2023-02-09T19:17:15.948Z,9.93
2023-02-09T19:19:42.486Z,7.73
2023-02-09T19:22:09.008Z,8.57
2023-02-09T19:24:35.605Z,8.80
2023-02-09T19:27:02.830Z,9.13
2023-02-09T19:29:28.745Z,9.43
2023-02-09T19:31:55.487Z,9.23
2023-02-09T19:34:22.125Z,9.33
2023-02-09T19:36:48.294Z,9.27
2023-02-09T19:39:14.892Z,10.53
2023-02-09T19:41:44.914Z,9.20
2023-02-09T19:44:11.595Z,10.68
2023-02-09T19:46:37.544Z,9.63
2023-02-09T19:49:03.576Z,9.50
2023-02-09T19:51:29.472Z,9.10
2023-02-09T19:53:55.344Z,10.43
2023-02-09T19:56:22.690Z,9.77
2023-02-09T19:58:48.557Z,10.97
2023-02-09T20:01:14.758Z,10.10
2023-02-09T20:03:40.586Z,10.17
2023-02-09T20:06:08.360Z,9.47
2023-02-09T20:08:35.419Z,10.47
2023-02-09T20:11:06.879Z,11.17
2023-02-09T20:13:33.238Z,11.40
2023-02-09T20:15:59.062Z,10.33
2023-02-09T20:18:25.058Z,9.67
2023-02-09T20:20:50.854Z,9.10
2023-02-09T20:23:16.615Z,9.87
2023-02-09T20:25:43.471Z,8.53
2023-02-09T20:28:12.786Z,9.17
2023-02-09T20:30:42.507Z,8.23
2023-02-09T20:33:09.629Z,11.33
2023-02-09T20:35:39.664Z,8.83
2023-02-09T20:38:05.724Z,10.63
2023-02-09T20:40:31.865Z,8.43
2023-02-09T20:43:16.524Z,9.03
2023-02-09T20:46:00.884Z,8.53
2023-02-09T20:48:26.866Z,8.83
2023-02-09T20:50:52.899Z,9.13
2023-02-09T20:53:19.105Z,8.67
2023-02-09T20:55:44.912Z,8.67
2023-02-09T20:58:11.107Z,8.93
2023-02-09T21:00:37.190Z,9.90
2023-02-09T21:03:03.236Z,9.30
2023-02-09T21:05:32.147Z,9.93
2023-02-09T21:07:57.956Z,9.40
2023-02-09T21:10:23.726Z,9.73
2023-02-09T21:12:49.508Z,10.13
2023-02-09T21:15:15.529Z,9.00
2023-02-09T21:17:46.865Z,10.20
2023-02-09T21:20:15.812Z,10.57
2023-02-09T21:22:41.546Z,9.20
2023-02-09T21:25:07.506Z,9.13
2023-02-09T21:27:33.417Z,8.53
2023-02-09T21:29:59.658Z,11.53
2023-02-09T21:32:25.435Z,11.00
2023-02-09T21:34:51.437Z,10.77
2023-02-09T21:37:17.372Z,9.70
2023-02-09T21:39:43.229Z,10.73
2023-02-09T21:42:26.580Z,10.03
2023-02-09T21:44:54.339Z,9.40
2023-02-09T21:47:30.388Z,9.57
2023-02-09T21:49:56.808Z,10.47
2023-02-09T21:52:23.215Z,8.97
2023-02-09T21:54:49.142Z,10.80
2023-02-09T21:57:15.401Z,10.37
2023-02-09T21:59:41.218Z,10.03
2023-02-09T22:02:07.360Z,9.67
2023-02-09T22:04:33.186Z,10.53
2023-02-09T22:06:59.024Z,10.63
2023-02-09T22:09:24.832Z,10.00
2023-02-09T22:11:50.758Z,10.00
2023-02-09T22:14:16.594Z,10.17
2023-02-09T22:16:42.577Z,9.60
2023-02-09T22:19:08.374Z,12.50
2023-02-09T22:21:34.254Z,8.60
2023-02-09T22:24:01.603Z,8.50
2023-02-09T22:26:27.336Z,10.23
2023-02-09T22:28:53.126Z,10.03
2023-02-09T22:31:20.043Z,11.90
2023-02-09T22:33:46.285Z,9.00
2023-02-09T22:36:13.538Z,9.93
2023-02-09T22:38:39.683Z,8.47
2023-02-09T22:41:06.399Z,9.30
2023-02-09T22:43:32.776Z,10.23
2023-02-09T22:45:58.507Z,9.47
2023-02-09T22:48:24.316Z,8.97
2023-02-09T22:50:50.074Z,8.70
2023-02-09T22:53:15.794Z,8.67
2023-02-09T22:55:41.561Z,9.77
2023-02-09T22:58:07.242Z,9.80
2023-02-09T23:00:32.978Z,9.00
2023-02-09T23:02:58.682Z,8.30
2023-02-09T23:05:24.435Z,9.33
2023-02-09T23:07:50.178Z,9.80
2023-02-09T23:10:16.300Z,9.33
2023-02-09T23:12:42.036Z,8.93
2023-02-09T23:15:08.255Z,10.30
2023-02-09T23:17:34.044Z,9.23
2023-02-09T23:19:59.841Z,9.63
2023-02-09T23:22:25.547Z,9.40
2023-02-09T23:24:51.454Z,8.83
2023-02-09T23:27:18.706Z,8.97
2023-02-09T23:29:44.504Z,8.52
2023-02-09T23:32:10.206Z,9.03
2023-02-09T23:34:35.996Z,9.45
2023-02-09T23:37:13.201Z,9.07
2023-02-09T23:39:49.328Z,9.23
2023-02-09T23:42:15.043Z,8.70
2023-02-09T23:44:40.915Z,9.87
2023-02-09T23:47:06.803Z,9.10
2023-02-09T23:49:32.631Z,9.65
2023-02-09T23:51:58.339Z,8.60
2023-02-09T23:54:24.049Z,10.02
2023-02-09T23:56:49.821Z,8.97
2023-02-09T23:59:15.594Z,10.30
